Latest Coastal Weather Observations for Cape Willoughby

IDS60701

Issued at 11:31 am CDT Saturday 10 December 2016 (issued every 10 minutes, with the page automatically refreshed every 10 minutes)

About coastal observations | Map of coastal stations | Coastal observations for SA | Marine services | Other Formats
Station Details ID: 022803 Name: CAPE WILLOUGHBY Lat: -35.84 Lon: 138.13 Height: 55.0 m
Data from the previous 72 hours. | See also: Recent months at Cape Willoughby
Date/Time
CDT
Temp
°C
Wind Pressure Rain since
9am
mm
Weather Cloud Vis
km
Sea
Height
m
Swell
Dir  Spd
kts
Gust
kts
hPa Trend Height
m
Period
s
Dir
10/11:00am 16.5 E 8 11 1024.8 - 0.0 - - - - - - -
10/10:30am 15.9 ENE 7 10 1025.0 - 0.0 - - - - - - -
10/10:00am 16.5 ENE 7 9 1024.9 - 0.0 - - - - - - -
10/09:30am 15.8 ENE 9 12 1024.9 - 0.0 - - - - - - -
10/09:00am 15.3 ENE 9 11 1024.9 - 0.0 - - - - - - -
10/08:30am 16.0 E 7 10 1024.6 - 0.0 - - - - - - -
10/08:00am 15.6 E 7 11 1024.3 - 0.0 - - - - - - -
10/07:30am 14.8 ENE 10 13 1023.9 - 0.0 - - - - - - -
10/07:00am 13.8 ESE 7 11 1023.8 - 0.0 - - - - - - -
10/06:30am 13.4 ESE 7 11 1023.6 - 0.0 - - - - - - -
10/06:00am 13.6 ESE 7 10 1023.4 - 0.0 - - - - - - -
10/05:30am 13.5 E 7 9 1023.1 - 0.0 - - - - - - -
10/05:00am 13.4 SE 7 9 1023.1 - 0.0 - - - - - - -
10/04:30am 13.2 E 6 11 1022.8 - 0.0 - - - - - - -
10/04:00am 13.4 ESE 6 9 1022.9 - 0.0 - - - - - - -
10/03:30am 13.3 SE 6 11 1022.9 - 0.0 - - - - - - -
10/03:00am 13.3 ESE 7 12 1022.9 - 0.0 - - - - - - -
10/02:30am 13.5 ESE 5 9 1023.2 - 0.0 - - - - - - -
10/02:00am 13.4 SE 10 15 1023.4 - 0.0 - - - - - - -
10/01:30am 13.4 ESE 7 13 1023.6 - 0.0 - - - - - - -
10/01:00am 13.5 ESE 8 11 1023.6 - 0.0 - - - - - - -
10/12:30am 13.6 SSE 8 11 1024.0 - 0.0 - - - - - - -
10/12:00am 13.4 SE 8 12 1024.1 - 0.0 - - - - - - -
 
Date/Time
CDT
Temp
°C
Wind Pressure Rain since
9am
mm
Weather Cloud Vis
km
Sea
Height
m
Swell
Dir  Spd
kts
Gust
kts
hPa Trend Height
m
Period
s
Dir
09/11:30pm 13.5 SSE 7 10 1024.1 - 0.0 - - - - - - -
09/11:00pm 13.5 SE 8 13 1024.3 - 0.0 - - - - - - -
09/10:30pm 13.6 SE 7 10 1024.3 - 0.0 - - - - - - -
09/10:00pm 13.7 SSE 10 14 1024.1 - 0.0 - - - - - - -
09/09:30pm 13.8 SSE 9 12 1023.8 - 0.0 - - - - - - -
09/09:00pm 13.7 SSE 9 13 1024.1 - 0.0 - - - - - - -
09/08:30pm 13.8 S 12 16 1023.7 - 0.0 - - - - - - -
09/08:00pm 13.9 SE 10 14 1023.5 - 0.0 - - - - - - -
09/07:30pm 13.9 SSE 11 14 1023.3 - 0.0 - - - - - - -
09/07:00pm 14.0 SSE 9 14 1023.2 - 0.0 - - - - - - -
09/06:30pm 14.0 SSE 12 15 1022.9 - 0.0 - - - - - - -
09/06:00pm 14.6 SSE 14 18 1022.7 - 0.0 - - - - - - -
09/05:30pm 14.3 S 13 18 1022.9 - 0.0 - - - - - - -
09/05:00pm 14.9 S 12 16 1022.8 - 0.0 - - - - - - -
09/04:30pm 15.2 S 13 16 1022.8 - 0.0 - - - - - - -
09/04:00pm 14.6 S 12 15 1022.8 - 0.0 - - - - - - -
09/03:30pm 15.3 S 11 14 1022.8 - 0.0 - - - - - - -
09/03:00pm 15.6 S 11 14 1023.0 - 0.0 - - - - - - -
09/02:30pm 15.2 S 11 14 1023.1 - 0.0 - - - - - - -
09/02:00pm 15.4 S 11 15 1023.2 - 0.0 - - - - - - -
09/01:30pm 15.0 S 10 13 1023.5 - 0.0 - - - - - - -
09/01:00pm 15.0 S 11 14 1023.7 - 0.0 - - - - - - -
09/12:30pm 14.9 S 12 15 1023.7 - 0.0 - - - - - - -
09/12:00pm 14.1 S 11 15 1023.6 - 0.0 - - - - - - -
09/11:30am 14.1 S 11 15 1023.4 - 0.0 - - - - - - -
09/11:00am 13.9 S 14 18 1023.1 - 0.0 - - - - - - -
09/10:30am 14.1 S 14 18 1022.8 - 0.0 - - - - - - -
09/10:00am 13.9 S 14 18 1022.6 - 0.0 - - - - - - -
09/09:30am 13.5 S 16 20 1022.4 - 0.0 - - - - - - -
09/09:00am 13.7 S 15 20 1022.2 - - - - - - - - -
09/08:30am 13.8 S 14 18 1021.8 - - - - - - - - -
09/08:00am 13.8 S 15 20 1021.3 - - - - - - - - -
09/07:30am 13.8 S 18 23 1020.7 - - - - - - - - -
09/07:00am 13.7 S 16 21 1020.2 - - - - - - - - -
09/06:30am 13.6 S 17 25 1019.8 - - - - - - - - -
09/06:00am 13.5 S 19 24 1019.5 - - - - - - - - -
09/05:30am 13.5 S 17 23 1019.0 - - - - - - - - -
09/05:00am 13.6 S 17 21 1018.5 - - - - - - - - -
09/04:30am 13.6 S 15 21 1018.3 - - - - - - - - -
09/04:00am 13.5 S 13 22 1018.0 - - - - - - - - -
09/03:30am 13.3 S 19 25 1017.4 - - - - - - - - -
09/03:00am 13.4 S 21 26 1017.3 - - - - - - - - -
09/02:30am 13.8 S 16 23 1017.2 - - - - - - - - -
09/02:00am 13.7 SSW 14 22 1017.2 - - - - - - - - -
09/01:32am 13.4 SSW 16 27 1017.1 - - - - - - - - -
09/01:30am 13.5 SSW 15 25 1017.0 - - - - - - - - -
09/01:20am 13.4 S 20 30 1017.0 - - - - - - - - -
09/01:00am 13.6 S 19 26 1016.9 - - - - - - - - -
09/12:47am 13.7 SSW 15 25 1016.9 - - - - - - - - -
09/12:30am 13.6 SSW 16 25 1017.2 - - - - - - - - -
09/12:00am 13.5 SSW 21 27 1017.1 - - - - - - - - -
 
Date/Time
CDT
Temp
°C
Wind Pressure Rain since
9am
mm
Weather Cloud Vis
km
Sea
Height
m
Swell
Dir  Spd
kts
Gust
kts
hPa Trend Height
m
Period
s
Dir
08/11:38pm 13.9 S 19 29 1017.0 - - - - - - - - -
08/11:30pm 13.9 S 20 28 1016.8 - - - - - - - - -
08/11:00pm 13.9 SSW 18 32 1016.7 - - - - - - - - -
08/10:58pm 14.0 SSW 17 28 1016.8 - - - - - - - - -
08/10:30pm 13.8 SSW 27 33 1016.8 - - - - - - - - -
08/10:00pm 13.9 SSW 25 32 1016.1 - - - - - - - - -
08/09:30pm 14.1 SSW 24 31 1014.3 - - - - - - - - -
08/09:00pm 13.6 SSW 25 33 1015.2 - - - - - - - - -
08/08:30pm 14.0 SSW 25 34 1014.8 - - - - - - - - -
08/08:00pm 14.0 SSW 24 30 1014.2 - - - - - - - - -
08/07:30pm 14.6 SSW 23 - 1013.8 - - - - - - - - -
08/06:30pm 15.2 SW 26 33 1012.7 - - - - - - - - -
08/06:00pm 15.7 SW 23 33 1012.2 - - - - - - - - -
08/05:39pm 15.4 SW 23 34 1012.0 - - - - - - - - -
08/05:30pm 15.1 SW 25 33 1011.6 - - - - - - - - -
08/05:00pm 15.8 SW 24 31 1011.5 - - - - - - - - -
08/04:30pm 16.2 SW 22 30 1011.1 - - - - - - - - -
08/04:04pm 15.8 SW 26 37 1010.6 - - - - - - - - -
08/04:00pm 16.4 SW 24 29 1010.6 - - - - - - - - -
08/03:30pm 15.4 WSW 22 33 1010.5 - - - - - - - - -
08/03:00pm 16.1 SW 26 32 1010.0 - - - - - - - - -
08/02:30pm 15.9 WSW 21 27 1010.2 - - - - - - - - -
08/02:12pm 17.9 SW 25 36 1010.0 - 0.0 - - - - - - -
08/02:00pm 16.5 SW 26 33 1009.5 - 0.0 - - - - - - -
08/01:30pm 17.1 SW 24 36 1009.7 - 0.0 - - - - - - -
08/01:10pm 16.9 SW 24 38 1009.2 - 0.0 - - - - - - -
08/01:00pm 16.1 WSW 25 33 1009.3 - 0.0 - - - - - - -
08/12:30pm 16.1 SW 27 40 1008.7 - 0.0 - - - - - - -
08/12:04pm 17.4 WSW 28 39 1008.1 - 0.0 - - - - - - -
08/12:00pm 17.2 SW 29 39 1008.1 - 0.0 - - - - - - -
08/11:30am 16.1 WSW 24 34 1008.1 - 0.0 - - - - - - -
08/11:02am 16.2 WSW 24 34 1007.9 - 0.0 - - - - - - -
08/11:00am 15.9 WSW 25 34 1007.8 - 0.0 - - - - - - -
08/10:42am 16.8 SW 27 37 1007.3 - 0.0 - - - - - - -
08/10:30am 16.4 WSW 25 33 1007.1 - 0.0 - - - - - - -
08/10:00am 17.2 WSW 23 33 1006.6 - 0.0 - - - - - - -
08/09:33am 16.8 WSW 24 35 1006.4 - 0.0 - - - - - - -
08/09:30am 16.8 WSW 26 35 1006.4 - 0.0 - - - - - - -
08/09:01am 16.6 W 22 32 1006.1 - 0.0 - - - - - - -
08/09:00am 16.7 W 22 31 1006.1 - 0.2 - - - - - - -
08/08:33am 15.9 W 16 27 1006.0 - 0.2 - - - - - - -
08/08:30am 16.2 W 17 26 1006.1 - 0.2 - - - - - - -
08/08:12am 15.5 W 15 28 1005.7 - 0.2 - - - - - - -
08/08:00am 15.0 W 15 23 1005.7 - 0.2 - - - - - - -
08/07:30am 14.4 W 16 23 1005.2 - 0.2 - - - - - - -
08/07:00am 13.8 WNW 17 23 1004.3 - 0.2 - - - - - - -
08/06:30am 13.8 W 21 29 1003.8 - 0.2 - - - - - - -
08/06:23am 13.8 W 19 29 1003.7 - 0.2 - - - - - - -
08/06:00am 14.4 W 20 28 1003.6 - 0.2 - - - - - - -
08/05:30am 14.4 W 19 29 1003.1 - 0.2 - - - - - - -
08/05:03am 14.6 W 17 27 1002.7 - 0.2 - - - - - - -
08/05:00am 14.7 W 19 27 1002.7 - 0.2 - - - - - - -
08/04:30am 14.9 W 15 22 1002.5 - 0.2 - - - - - - -
08/04:00am 14.9 WSW 17 25 1001.9 - 0.2 - - - - - - -
08/03:30am 15.2 WSW 23 34 1001.6 - 0.2 - - - - - - -
08/03:06am 15.8 WSW 22 32 1000.8 - 0.2 - - - - - - -
08/03:00am 15.9 WSW 23 32 1000.4 - 0.2 - - - - - - -
08/02:30am 17.2 WSW 19 33 999.7 - 0.2 - - - - - - -
08/02:00am 18.4 W 16 27 999.2 - 0.2 - - - - - - -
08/01:50am 19.0 W 15 25 999.2 - 0.2 - - - - - - -
08/01:30am 19.9 WNW 15 21 998.5 - 0.0 - - - - - - -
08/01:00am 21.1 W 7 13 998.7 - 0.0 - - - - - - -
08/12:30am 21.2 NNW 16 21 998.6 - 0.0 - - - - - - -
08/12:00am 22.1 NW 16 24 997.9 - 0.0 - - - - - - -
 
Date/Time
CDT
Temp
°C
Wind Pressure Rain since
9am
mm
Weather Cloud Vis
km
Sea
Height
m
Swell
Dir  Spd
kts
Gust
kts
hPa Trend Height
m
Period
s
Dir
07/11:30pm 22.4 NNW 19 26 996.8 - 0.0 - - - - - - -
07/11:03pm 23.8 NNW 23 33 997.5 - 0.0 - - - - - - -
07/11:00pm 23.9 NNW 21 28 997.6 - 0.0 - - - - - - -
07/10:30pm 22.8 NNW 15 20 998.1 - 0.0 - - - - - - -
07/10:00pm 21.9 NNW 14 18 998.1 - 0.0 - - - - - - -
07/09:30pm 20.5 NNE 9 12 999.6 - 0.0 - - - - - - -
07/09:00pm 21.9 N 5 7 999.6 - 0.0 - - - - - - -
07/08:30pm 22.0 N 7 8 1000.4 - 0.0 - - - - - - -
07/08:00pm 21.3 NNW 5 8 1001.3 - 0.0 - - - - - - -
07/07:30pm 22.2 N 11 12 1001.2 - 0.0 - - - - - - -
07/07:00pm 23.9 NNW 9 11 1001.8 - 0.0 - - - - - - -
07/06:30pm 24.0 NNW 10 12 1002.4 - 0.0 - - - - - - -
07/06:00pm 24.3 NNW 9 10 1002.8 - 0.0 - - - - - - -
07/05:30pm 23.1 N 9 11 1003.6 - 0.0 - - - - - - -
07/05:00pm 23.1 NNW 8 11 1004.5 - 0.0 - - - - - - -
07/04:30pm 23.1 N 7 10 1005.5 - 0.0 - - - - - - -
07/04:00pm 21.0 N 6 8 1006.4 - 0.0 - - - - - - -
07/03:30pm 20.5 NNE 4 5 1007.2 - 0.0 - - - - - - -
07/03:00pm 20.7 NE 4 6 1007.8 - 0.0 - - - - - - -
07/02:30pm 20.2 NNE 4 6 1008.4 - 0.0 - - - - - - -
07/02:00pm 20.3 NNE 5 6 1009.1 - 0.0 - - - - - - -
07/01:30pm 20.5 NE 6 8 1009.7 - 0.0 - - - - - - -
07/01:00pm 20.2 ENE 7 9 1010.3 - 0.0 - - - - - - -
07/12:30pm 19.9 NE 8 10 1010.9 - 0.0 - - - - - - -
07/12:00pm 19.6 NE 8 10 1011.6 - 0.0 - - - - - - -

Other Formats:

Comma delimited format used in spreadsheet applications
http://www.bom.gov.au/fwo/IDS60701/IDS60701.94822.axf

JavaScript Object Notation format (JSON) in row-major order
http://www.bom.gov.au/fwo/IDS60701/IDS60701.94822.json